createdAt,value
2023-04-16T00:02:22.675Z,3.50
2023-04-16T00:05:25.698Z,4.75
2023-04-16T00:08:28.172Z,4.47
2023-04-16T00:11:30.839Z,4.80
2023-04-16T00:14:34.568Z,2.75
2023-04-16T00:17:37.355Z,5.30
2023-04-16T00:20:40.431Z,4.32
2023-04-16T00:23:42.991Z,5.68
2023-04-16T00:26:45.556Z,4.57
2023-04-16T00:29:49.135Z,5.22
2023-04-16T00:32:52.787Z,3.60
2023-04-16T00:35:55.105Z,6.25
2023-04-16T00:38:58.370Z,4.78
2023-04-16T00:42:01.698Z,4.75
2023-04-16T00:45:04.226Z,5.60
2023-04-16T00:48:06.634Z,5.05
2023-04-16T00:51:09.071Z,6.35
2023-04-16T00:54:11.738Z,5.97
2023-04-16T00:57:15.483Z,9.20
2023-04-16T01:00:18.911Z,6.28
2023-04-16T01:03:21.878Z,6.72
2023-04-16T01:06:24.274Z,6.28
2023-04-16T01:09:26.511Z,7.72
2023-04-16T01:12:28.709Z,7.80
2023-04-16T01:15:31.732Z,10.52
2023-04-16T01:18:34.229Z,8.25
2023-04-16T01:21:37.187Z,7.93
2023-04-16T01:24:40.081Z,7.05
2023-04-16T01:27:46.102Z,9.52
2023-04-16T01:30:50.078Z,8.50
2023-04-16T01:34:02.731Z,7.60
2023-04-16T01:37:06.395Z,8.15
2023-04-16T01:40:09.503Z,8.75
2023-04-16T01:43:12.680Z,9.00
2023-04-16T01:46:15.117Z,7.13
2023-04-16T01:49:17.924Z,7.50
2023-04-16T01:52:21.479Z,9.57
2023-04-16T01:55:24.323Z,7.10
2023-04-16T01:58:27.318Z,10.85
2023-04-16T02:01:30.370Z,9.10
2023-04-16T02:04:32.967Z,10.27
2023-04-16T02:07:36.207Z,8.60
2023-04-16T02:10:39.028Z,9.07
2023-04-16T02:13:43.142Z,8.88
2023-04-16T02:16:45.909Z,8.02
2023-04-16T02:20:09.875Z,9.02
2023-04-16T02:23:18.244Z,6.93
2023-04-16T02:26:20.821Z,8.52
2023-04-16T02:29:24.867Z,9.43
2023-04-16T02:32:35.594Z,8.88
2023-04-16T02:35:38.607Z,8.38
2023-04-16T02:38:41.324Z,9.98
2023-04-16T02:41:44.137Z,7.60
2023-04-16T02:44:46.585Z,10.30
2023-04-16T02:47:48.981Z,10.60
2023-04-16T02:50:51.309Z,6.10
2023-04-16T02:53:54.311Z,8.50
2023-04-16T02:56:56.896Z,12.63
2023-04-16T03:00:00.477Z,11.00
2023-04-16T03:03:03.872Z,9.07
2023-04-16T03:06:07.163Z,12.07
2023-04-16T03:09:09.863Z,10.75
2023-04-16T03:12:13.083Z,12.95
2023-04-16T03:15:15.974Z,10.52
2023-04-16T03:18:18.934Z,10.15
2023-04-16T03:21:21.623Z,9.18
2023-04-16T03:24:24.717Z,9.43
2023-04-16T03:27:27.726Z,8.73
2023-04-16T03:30:30.873Z,9.60
2023-04-16T03:33:33.285Z,9.27
2023-04-16T03:36:36.300Z,9.82
2023-04-16T03:39:38.874Z,8.98
2023-04-16T03:42:41.370Z,9.07
2023-04-16T03:45:43.911Z,9.30
2023-04-16T03:48:46.638Z,8.30
2023-04-16T03:51:49.594Z,8.85
2023-04-16T03:54:53.362Z,9.00
2023-04-16T03:58:02.284Z,10.93
2023-04-16T04:01:07.032Z,10.20
2023-04-16T04:04:12.802Z,11.80
2023-04-16T04:07:15.331Z,9.73
2023-04-16T04:10:18.230Z,11.82
2023-04-16T04:13:20.982Z,11.48
2023-04-16T04:16:30.681Z,11.55
2023-04-16T04:19:34.432Z,11.98
2023-04-16T04:22:37.390Z,9.32
2023-04-16T04:25:39.753Z,10.68
2023-04-16T04:28:43.138Z,14.15
2023-04-16T04:31:46.282Z,9.68
2023-04-16T04:34:49.410Z,10.60
2023-04-16T04:37:51.790Z,12.10
2023-04-16T04:40:56.266Z,10.80
2023-04-16T04:44:00.091Z,10.77
2023-04-16T04:47:02.673Z,9.45
2023-04-16T04:50:06.094Z,9.43
2023-04-16T04:53:09.442Z,10.90
2023-04-16T04:56:13.308Z,12.18
2023-04-16T04:59:16.987Z,10.23
2023-04-16T05:02:20.109Z,11.32
2023-04-16T05:05:22.310Z,9.07
2023-04-16T05:08:25.422Z,10.55
2023-04-16T05:11:28.491Z,10.02
2023-04-16T05:14:31.594Z,9.40
2023-04-16T05:17:33.837Z,9.02
2023-04-16T05:20:36.642Z,10.48
2023-04-16T05:23:39.639Z,10.18
2023-04-16T05:26:42.689Z,9.43
2023-04-16T05:29:45.405Z,8.52
2023-04-16T05:32:49.183Z,9.50
2023-04-16T05:35:52.639Z,9.85
2023-04-16T05:38:55.095Z,9.70
2023-04-16T05:41:58.276Z,8.43
2023-04-16T05:45:01.105Z,8.10
2023-04-16T05:48:04.567Z,9.52
2023-04-16T05:51:07.613Z,9.93
2023-04-16T05:54:10.944Z,8.57
2023-04-16T05:57:13.345Z,7.85
2023-04-16T06:00:16.539Z,8.57
2023-04-16T06:03:19.055Z,9.18
2023-04-16T06:06:21.646Z,8.95
2023-04-16T06:09:24.271Z,8.68
2023-04-16T06:12:27.042Z,7.45
2023-04-16T06:15:30.982Z,8.38
2023-04-16T06:18:34.268Z,7.80
2023-04-16T06:21:37.792Z,7.65
2023-04-16T06:24:41.301Z,8.68
2023-04-16T06:27:44.026Z,8.48
2023-04-16T06:30:46.389Z,9.00
2023-04-16T06:33:49.318Z,8.57
2023-04-16T06:36:52.177Z,11.38
2023-04-16T06:39:55.565Z,9.65
2023-04-16T06:42:59.914Z,9.20
2023-04-16T06:46:02.991Z,9.27
2023-04-16T06:49:05.861Z,10.27
2023-04-16T06:52:09.150Z,12.32
2023-04-16T06:55:12.217Z,12.35
2023-04-16T06:58:16.229Z,10.02
2023-04-16T07:01:19.779Z,12.88
2023-04-16T07:04:22.126Z,12.13
2023-04-16T07:07:24.935Z,12.15
2023-04-16T07:10:27.948Z,182.35
2023-04-16T07:13:30.974Z,121.00
2023-04-16T07:16:33.903Z,108.25
2023-04-16T07:19:36.932Z,114.05
2023-04-16T07:22:40.088Z,112.55
2023-04-16T07:25:42.644Z,103.05
2023-04-16T07:28:45.361Z,95.85
2023-04-16T07:31:48.151Z,93.70
2023-04-16T07:34:50.896Z,88.80
2023-04-16T07:37:54.260Z,94.63
2023-04-16T07:40:57.492Z,84.82
2023-04-16T07:44:00.820Z,80.60
2023-04-16T07:47:57.684Z,76.70
2023-04-16T07:51:00.388Z,78.03
2023-04-16T07:54:02.629Z,75.45
2023-04-16T07:57:05.833Z,64.78
2023-04-16T08:00:08.917Z,67.32
2023-04-16T08:03:17.745Z,68.72
2023-04-16T08:06:20.638Z,68.22
2023-04-16T08:09:23.280Z,64.10
2023-04-16T08:12:26.029Z,65.10
2023-04-16T08:15:28.685Z,57.95
2023-04-16T08:18:32.320Z,58.80
2023-04-16T08:21:35.792Z,54.83
2023-04-16T08:24:38.263Z,57.08
2023-04-16T08:27:41.032Z,52.63
2023-04-16T08:30:43.624Z,50.53
2023-04-16T08:33:46.678Z,50.80
2023-04-16T08:36:49.778Z,49.88
2023-04-16T08:39:52.693Z,46.90
2023-04-16T08:42:55.556Z,48.05
2023-04-16T08:45:59.379Z,51.88
2023-04-16T08:49:02.425Z,47.15
2023-04-16T08:52:05.250Z,44.15
2023-04-16T08:55:08.140Z,53.35
2023-04-16T08:58:10.867Z,51.45
2023-04-16T09:01:13.447Z,58.38
2023-04-16T09:04:16.496Z,55.25
2023-04-16T09:07:19.296Z,50.97
2023-04-16T09:10:22.084Z,50.67
2023-04-16T09:13:25.080Z,48.05
2023-04-16T09:16:28.157Z,47.70
2023-04-16T09:19:31.722Z,52.67
2023-04-16T09:22:34.452Z,51.33
2023-04-16T09:25:37.181Z,51.50
2023-04-16T09:28:39.722Z,50.25
2023-04-16T09:31:42.939Z,51.50
2023-04-16T09:34:46.452Z,48.80
2023-04-16T09:37:48.789Z,50.25
2023-04-16T09:40:51.378Z,48.03
2023-04-16T09:43:53.957Z,45.80
2023-04-16T09:46:56.527Z,51.15
2023-04-16T09:49:59.789Z,57.95
2023-04-16T09:53:02.798Z,48.45
2023-04-16T09:56:06.180Z,50.97
2023-04-16T09:59:09.453Z,49.28
2023-04-16T10:02:15.750Z,51.88
2023-04-16T10:05:19.961Z,47.80
2023-04-16T10:08:22.714Z,49.90
2023-04-16T10:11:26.115Z,47.45
2023-04-16T10:14:28.709Z,48.25
2023-04-16T10:17:31.733Z,46.63
2023-04-16T10:20:34.754Z,45.13
2023-04-16T10:23:37.520Z,47.92
2023-04-16T10:26:40.861Z,42.08
2023-04-16T10:29:44.007Z,45.78
2023-04-16T10:32:47.124Z,38.50
2023-04-16T10:35:57.877Z,41.75
2023-04-16T10:39:08.041Z,37.60
2023-04-16T10:42:11.234Z,36.38
2023-04-16T10:45:14.780Z,38.13
2023-04-16T10:48:17.909Z,37.05
2023-04-16T10:51:21.355Z,37.83
2023-04-16T10:54:24.886Z,39.47
2023-04-16T10:57:27.667Z,39.90
2023-04-16T11:00:30.373Z,36.95
2023-04-16T11:03:33.267Z,37.13
2023-04-16T11:06:35.601Z,36.05
2023-04-16T11:09:37.947Z,35.95
2023-04-16T11:12:40.188Z,34.42
2023-04-16T11:15:43.378Z,35.67
2023-04-16T11:18:51.145Z,35.85
2023-04-16T11:21:53.873Z,35.40
2023-04-16T11:24:56.242Z,33.67
2023-04-16T11:27:59.255Z,38.88
2023-04-16T11:31:03.003Z,35.88
2023-04-16T11:34:05.397Z,34.08
2023-04-16T11:37:08.614Z,31.35
2023-04-16T11:43:36.212Z,35.28
2023-04-16T11:46:38.826Z,32.05
2023-04-16T11:49:41.833Z,32.38
2023-04-16T11:52:44.053Z,29.17
2023-04-16T11:55:46.603Z,32.20
2023-04-16T11:58:49.435Z,31.17
2023-04-16T12:01:52.206Z,31.77
2023-04-16T12:04:54.645Z,35.60
2023-04-16T12:07:57.906Z,33.33
2023-04-16T12:11:01.496Z,33.97
2023-04-16T12:14:04.551Z,32.97
2023-04-16T12:17:07.980Z,32.13
2023-04-16T12:20:11.439Z,32.38
2023-04-16T12:23:14.657Z,29.67
2023-04-16T12:26:17.769Z,31.77
2023-04-16T12:29:20.841Z,31.50
2023-04-16T12:32:23.926Z,33.40
2023-04-16T12:35:27.310Z,32.70
2023-04-16T12:38:31.458Z,28.98
2023-04-16T12:41:34.037Z,30.50
2023-04-16T12:44:36.890Z,33.10
2023-04-16T12:47:39.745Z,28.55
2023-04-16T12:50:42.966Z,29.95
2023-04-16T12:53:45.784Z,28.05
2023-04-16T12:56:48.270Z,27.77
2023-04-16T12:59:51.427Z,28.98
2023-04-16T13:02:54.762Z,27.42
2023-04-16T13:05:57.877Z,28.05
2023-04-16T13:09:00.134Z,26.67
2023-04-16T13:12:02.584Z,27.45
2023-04-16T13:15:06.110Z,23.25
2023-04-16T13:18:10.034Z,25.95
2023-04-16T13:21:13.525Z,21.88
2023-04-16T13:24:16.805Z,22.88
2023-04-16T13:27:19.993Z,22.30
2023-04-16T13:30:23.817Z,22.98
2023-04-16T13:33:26.847Z,23.55
2023-04-16T13:36:29.157Z,22.05
2023-04-16T13:39:31.920Z,24.73
2023-04-16T13:42:34.373Z,22.17
2023-04-16T13:45:36.739Z,26.92
2023-04-16T13:48:39.289Z,21.33
2023-04-16T13:51:42.172Z,21.05
2023-04-16T13:54:45.076Z,22.42
2023-04-16T13:57:55.051Z,23.20
2023-04-16T14:00:58.052Z,25.23
2023-04-16T14:04:01.003Z,25.15
2023-04-16T14:07:03.700Z,24.48
2023-04-16T14:10:06.631Z,23.02
2023-04-16T14:13:09.411Z,23.35
2023-04-16T14:16:12.360Z,23.52
2023-04-16T14:19:15.455Z,23.75
2023-04-16T14:22:18.350Z,23.70
2023-04-16T14:25:21.778Z,23.33
2023-04-16T14:28:24.993Z,24.77
2023-04-16T14:31:27.349Z,21.55
2023-04-16T14:34:30.297Z,23.83
2023-04-16T14:37:33.989Z,22.63
2023-04-16T14:40:36.576Z,22.98
2023-04-16T14:43:40.446Z,23.63
2023-04-16T14:46:42.554Z,20.70
2023-04-16T14:49:45.446Z,21.88
2023-04-16T14:52:48.948Z,23.05
2023-04-16T14:55:51.578Z,21.90
2023-04-16T14:58:55.047Z,21.60
2023-04-16T15:01:58.200Z,21.58
2023-04-16T15:05:01.803Z,20.55
2023-04-16T15:08:04.550Z,21.92
2023-04-16T15:11:07.125Z,20.90
2023-04-16T15:14:10.114Z,21.42
2023-04-16T15:17:12.779Z,20.52
2023-04-16T15:20:15.727Z,20.40
2023-04-16T15:23:18.032Z,20.15
2023-04-16T15:26:20.571Z,19.33
2023-04-16T15:29:23.841Z,21.55
2023-04-16T15:32:27.845Z,21.80
2023-04-16T15:35:31.260Z,20.63
2023-04-16T15:38:34.087Z,21.88
2023-04-16T15:41:37.148Z,20.45
2023-04-16T15:44:40.086Z,18.13
2023-04-16T15:47:43.022Z,64.35
2023-04-16T15:50:46.682Z,158.52
2023-04-16T15:53:48.958Z,99.60
2023-04-16T15:56:51.615Z,83.40
2023-04-16T16:03:03.291Z,77.30
2023-04-16T16:06:06.330Z,72.50
2023-04-16T16:09:09.839Z,72.50
2023-04-16T16:12:13.590Z,65.50
2023-04-16T16:15:17.350Z,55.80
2023-04-16T16:18:20.474Z,66.25
2023-04-16T16:21:23.967Z,54.13
2023-04-16T16:24:27.069Z,54.30
2023-04-16T16:27:30.509Z,53.15
2023-04-16T16:30:32.562Z,54.03
2023-04-16T16:33:36.511Z,48.08
2023-04-16T16:36:40.287Z,48.90
2023-04-16T16:39:42.226Z,48.47
2023-04-16T16:42:45.101Z,43.10
2023-04-16T16:45:47.834Z,42.03
2023-04-16T16:48:51.408Z,39.78
2023-04-16T16:51:53.776Z,40.80
2023-04-16T16:54:56.473Z,39.33
2023-04-16T16:57:59.216Z,36.17
2023-04-16T17:01:02.115Z,31.13
2023-04-16T17:04:04.988Z,36.00
2023-04-16T17:07:08.298Z,32.60
2023-04-16T17:10:10.803Z,30.88
2023-04-16T17:13:13.729Z,28.52
2023-04-16T17:16:16.191Z,30.50
2023-04-16T17:19:18.501Z,30.58
2023-04-16T17:22:21.159Z,31.20
2023-04-16T17:25:23.992Z,26.92
2023-04-16T17:28:26.968Z,30.40
2023-04-16T17:31:29.266Z,24.42
2023-04-16T17:34:31.613Z,27.88
2023-04-16T17:37:34.883Z,27.70
2023-04-16T17:40:38.542Z,24.50
2023-04-16T17:43:41.017Z,26.70
2023-04-16T17:46:43.682Z,23.40
2023-04-16T17:49:45.981Z,23.80
2023-04-16T17:52:49.099Z,21.83
2023-04-16T17:55:53.597Z,23.42
2023-04-16T17:58:57.498Z,23.38
2023-04-16T18:01:59.878Z,22.08
2023-04-16T18:05:02.802Z,23.92
2023-04-16T18:08:05.746Z,23.67
2023-04-16T18:11:08.794Z,22.70
2023-04-16T18:14:11.853Z,22.95
2023-04-16T18:17:14.894Z,21.85
2023-04-16T18:20:17.605Z,21.42
2023-04-16T18:23:20.611Z,23.25
2023-04-16T18:26:23.338Z,21.10
2023-04-16T18:29:26.505Z,22.73
2023-04-16T18:32:31.242Z,22.45
2023-04-16T18:35:34.470Z,22.98
2023-04-16T18:38:46.384Z,22.17
2023-04-16T18:41:51.950Z,19.05
2023-04-16T18:44:55.246Z,21.20
2023-04-16T18:47:58.144Z,23.00
2023-04-16T18:51:01.225Z,19.85
2023-04-16T18:54:04.233Z,21.92
2023-04-16T18:57:06.763Z,22.17
2023-04-16T19:00:09.495Z,19.38
2023-04-16T19:03:12.086Z,20.80
2023-04-16T19:06:14.942Z,23.20
2023-04-16T19:09:18.037Z,18.40
2023-04-16T19:12:20.512Z,19.63
2023-04-16T19:15:22.810Z,20.60
2023-04-16T19:18:26.483Z,19.20
2023-04-16T19:21:30.181Z,17.73
2023-04-16T19:24:34.271Z,18.63
2023-04-16T19:27:37.686Z,17.77
2023-04-16T19:30:40.779Z,17.10
2023-04-16T19:33:43.898Z,20.58
2023-04-16T19:36:47.710Z,18.90
2023-04-16T19:39:50.448Z,18.10
2023-04-16T19:42:53.298Z,18.25
2023-04-16T19:45:56.880Z,18.27
2023-04-16T19:48:59.613Z,21.38
2023-04-16T19:52:02.391Z,17.13
2023-04-16T19:55:04.981Z,19.42
2023-04-16T19:58:08.287Z,18.65
2023-04-16T20:01:11.813Z,18.73
2023-04-16T20:04:14.014Z,18.42
2023-04-16T20:07:16.351Z,18.15
2023-04-16T20:10:19.417Z,18.48
2023-04-16T20:13:22.739Z,18.75
2023-04-16T20:16:26.137Z,16.70
2023-04-16T20:19:29.329Z,19.60
2023-04-16T20:22:32.279Z,17.58
2023-04-16T20:25:35.758Z,20.30
2023-04-16T20:28:38.556Z,18.50
2023-04-16T20:31:40.808Z,19.80
2023-04-16T20:34:43.074Z,19.65
2023-04-16T20:37:46.296Z,17.20
2023-04-16T20:40:49.761Z,17.50
2023-04-16T20:43:52.314Z,18.90
2023-04-16T20:46:55.113Z,20.73
2023-04-16T20:49:58.302Z,21.40
2023-04-16T20:53:01.592Z,18.80
2023-04-16T20:56:04.898Z,19.30
2023-04-16T20:59:07.632Z,18.00
2023-04-16T21:02:10.583Z,19.58
2023-04-16T21:05:13.473Z,21.35
2023-04-16T21:08:16.257Z,20.08
2023-04-16T21:11:18.736Z,19.13
2023-04-16T21:14:21.455Z,19.60
2023-04-16T21:17:23.968Z,18.25
2023-04-16T21:20:28.804Z,19.40
2023-04-16T21:23:33.444Z,18.73
2023-04-16T21:26:36.173Z,18.33
2023-04-16T21:29:39.099Z,20.08
2023-04-16T21:32:41.738Z,19.30
2023-04-16T21:35:44.928Z,18.92
2023-04-16T21:38:48.766Z,17.85
2023-04-16T21:41:51.289Z,20.90
2023-04-16T21:44:54.487Z,19.33
2023-04-16T21:47:57.591Z,18.45
2023-04-16T21:51:00.158Z,19.75
2023-04-16T21:54:03.060Z,21.50
2023-04-16T21:57:05.795Z,21.10
2023-04-16T22:00:08.630Z,17.83
2023-04-16T22:03:10.946Z,18.80
2023-04-16T22:06:13.887Z,18.40
2023-04-16T22:09:17.339Z,19.10
2023-04-16T22:12:21.237Z,18.88
2023-04-16T22:15:24.620Z,20.70
2023-04-16T22:18:27.894Z,20.55
2023-04-16T22:21:30.429Z,17.27
2023-04-16T22:24:32.659Z,20.02
2023-04-16T22:27:35.333Z,19.25
2023-04-16T22:30:38.312Z,19.88
2023-04-16T22:33:41.235Z,20.05
2023-04-16T22:36:44.279Z,20.15
2023-04-16T22:39:47.294Z,20.60
2023-04-16T22:42:50.449Z,18.08
2023-04-16T22:45:53.702Z,21.05
2023-04-16T22:48:56.912Z,19.45
2023-04-16T22:51:59.570Z,19.95
2023-04-16T22:55:02.683Z,23.20
2023-04-16T22:58:06.053Z,19.27
2023-04-16T23:01:09.135Z,19.13
2023-04-16T23:04:11.396Z,20.95
2023-04-16T23:07:13.863Z,19.05
2023-04-16T23:10:16.746Z,19.10
2023-04-16T23:13:19.452Z,20.23
2023-04-16T23:16:23.068Z,18.30
2023-04-16T23:19:25.386Z,20.27
2023-04-16T23:22:27.957Z,20.95
2023-04-16T23:25:31.215Z,19.05
2023-04-16T23:28:34.406Z,20.70
2023-04-16T23:31:37.499Z,21.27
2023-04-16T23:34:40.471Z,20.00
2023-04-16T23:37:43.450Z,20.55
2023-04-16T23:40:46.523Z,22.00
2023-04-16T23:43:49.701Z,19.95
2023-04-16T23:46:52.693Z,21.58
2023-04-16T23:49:56.213Z,19.00
2023-04-16T23:52:59.233Z,19.00
2023-04-16T23:56:02.061Z,20.80
2023-04-16T23:59:05.128Z,20.45
